createdAt,value
2019-04-01T00:03:57.872Z,42.20
2019-04-01T00:08:59.236Z,42.20
2019-04-01T00:14:00.568Z,42.10
2019-04-01T00:19:03.246Z,42.00
2019-04-01T00:24:04.915Z,42.10
2019-04-01T00:29:06.353Z,42.20
2019-04-01T00:34:07.712Z,42.10
2019-04-01T00:39:09.069Z,42.10
2019-04-01T00:44:12.060Z,42.10
2019-04-01T00:49:13.397Z,42.20
2019-04-01T00:54:14.741Z,42.70
2019-04-01T00:59:16.113Z,42.10
2019-04-01T01:04:17.449Z,42.10
2019-04-01T01:09:18.821Z,42.10
2019-04-01T01:14:20.157Z,42.00
2019-04-01T01:19:21.532Z,42.10
2019-04-01T01:24:22.903Z,42.20
2019-04-01T01:29:24.264Z,42.10
2019-04-01T01:34:25.609Z,42.00
2019-04-01T01:39:27.080Z,42.00
2019-04-01T01:44:28.438Z,42.10
2019-04-01T01:49:29.793Z,42.00
2019-04-01T01:54:31.231Z,42.10
2019-04-01T01:59:32.584Z,41.90
2019-04-01T02:04:34.254Z,42.00
2019-04-01T02:09:35.589Z,42.00
2019-04-01T02:14:36.969Z,42.00
2019-04-01T02:19:38.316Z,42.00
2019-04-01T02:24:39.690Z,41.80
2019-04-01T02:29:41.071Z,42.00
2019-04-01T02:34:42.410Z,42.00
2019-04-01T02:39:43.783Z,41.90
2019-04-01T02:44:45.161Z,41.90
2019-04-01T02:49:46.532Z,41.80
2019-04-01T02:54:47.885Z,41.80
2019-04-01T02:59:49.219Z,41.70
2019-04-01T03:04:50.762Z,41.90
2019-04-01T03:09:52.139Z,42.40
2019-04-01T03:14:53.502Z,41.70
2019-04-01T03:19:54.871Z,41.50
2019-04-01T03:24:56.256Z,41.60
2019-04-01T03:29:57.614Z,41.60
2019-04-01T03:34:58.966Z,41.70
2019-04-01T03:40:00.700Z,41.70
2019-04-01T03:45:04.375Z,41.60
2019-04-01T03:50:06.579Z,41.60
2019-04-01T03:55:08.350Z,41.60
2019-04-01T04:00:10.294Z,41.70
2019-04-01T04:05:11.717Z,41.50
2019-04-01T04:10:13.235Z,41.60
2019-04-01T04:15:14.720Z,41.50
2019-04-01T04:20:16.168Z,42.20
2019-04-01T04:25:17.569Z,41.20
2019-04-01T04:30:20.021Z,41.30
2019-04-01T04:35:21.355Z,41.30
2019-04-01T04:40:22.816Z,41.20
2019-04-01T04:45:24.222Z,41.20
2019-04-01T04:50:25.592Z,41.10
2019-04-01T04:55:26.971Z,41.30
2019-04-01T05:00:28.301Z,41.30
2019-04-01T05:05:29.788Z,41.30
2019-04-01T05:10:31.242Z,41.40
2019-04-01T05:15:32.699Z,41.20
2019-04-01T05:20:34.260Z,41.20
2019-04-01T05:25:36.362Z,41.10
2019-04-01T05:30:39.353Z,41.10
2019-04-01T05:35:40.795Z,41.10
2019-04-01T05:40:42.566Z,41.20
2019-04-01T05:45:44.055Z,40.90
2019-04-01T05:50:45.413Z,40.80
2019-04-01T05:55:47.585Z,40.80
2019-04-01T06:00:51.134Z,40.80
2019-04-01T06:05:52.856Z,40.70
2019-04-01T06:10:54.405Z,40.80
2019-04-01T06:15:55.959Z,40.60
2019-04-01T06:20:57.915Z,40.90
2019-04-01T06:25:59.266Z,40.80
2019-04-01T06:31:00.838Z,40.80
2019-04-01T06:36:02.413Z,40.50
2019-04-01T06:41:03.749Z,40.70
2019-04-01T06:46:05.307Z,40.70
2019-04-01T06:51:06.744Z,40.50
2019-04-01T06:56:08.117Z,40.50
2019-04-01T07:01:09.541Z,40.80
2019-04-01T07:06:10.935Z,40.50
2019-04-01T07:11:12.395Z,40.80
2019-04-01T07:16:15.944Z,40.80
2019-04-01T07:21:17.480Z,40.60
2019-04-01T07:26:18.944Z,40.70
2019-04-01T07:31:20.392Z,40.70
2019-04-01T07:36:21.862Z,40.60
2019-04-01T07:41:23.289Z,40.60
2019-04-01T07:46:24.769Z,40.60
2019-04-01T07:51:26.106Z,40.40
2019-04-01T07:56:27.643Z,40.50
2019-04-01T08:01:29.220Z,40.50
2019-04-01T08:06:30.732Z,40.40
2019-04-01T08:11:32.194Z,40.60
2019-04-01T08:16:33.785Z,40.70
2019-04-01T08:21:35.215Z,40.40
2019-04-01T08:26:36.719Z,40.20
2019-04-01T08:31:38.177Z,40.30
2019-04-01T08:36:39.507Z,40.40
2019-04-01T08:41:41.300Z,40.10
2019-04-01T08:46:42.875Z,40.20
2019-04-01T08:51:44.211Z,40.00
2019-04-01T08:56:45.769Z,40.00
2019-04-01T09:01:47.093Z,40.10
2019-04-01T09:06:48.633Z,40.30
2019-04-01T09:11:52.710Z,40.00
2019-04-01T09:16:55.656Z,40.00
2019-04-01T09:21:57.116Z,40.00
2019-04-01T09:26:58.537Z,40.10
2019-04-01T09:32:00.041Z,40.40
2019-04-01T09:37:01.531Z,40.20
2019-04-01T09:42:03.099Z,40.10
2019-04-01T09:47:04.462Z,39.80
2019-04-01T09:52:05.829Z,39.90
2019-04-01T09:57:17.277Z,39.70
2019-04-01T10:02:10.610Z,39.20
2019-04-01T10:07:11.979Z,39.60
2019-04-01T10:12:13.309Z,39.70
2019-04-01T10:17:14.702Z,39.20
2019-04-01T10:22:16.073Z,39.70
2019-04-01T10:27:17.522Z,40.00
2019-04-01T10:32:18.902Z,39.80
2019-04-01T10:37:20.466Z,39.80
2019-04-01T10:42:21.909Z,39.50
2019-04-01T10:47:23.318Z,39.70
2019-04-01T10:52:24.617Z,39.40
2019-04-01T10:57:26.065Z,39.30
2019-04-01T11:02:27.429Z,39.10
2019-04-01T11:07:28.914Z,39.50
2019-04-01T11:12:30.334Z,39.50
2019-04-01T11:17:31.789Z,39.50
2019-04-01T11:22:33.260Z,39.70
2019-04-01T11:27:34.830Z,39.40
2019-04-01T11:32:36.393Z,39.20
2019-04-01T11:37:37.944Z,39.00
2019-04-01T11:42:40.841Z,39.00
2019-04-01T11:47:42.534Z,39.00
2019-04-01T11:52:43.910Z,39.00
2019-04-01T11:57:45.265Z,39.00
2019-04-01T12:02:46.680Z,38.80
2019-04-01T12:07:48.174Z,39.10
2019-04-01T12:12:49.558Z,39.00
2019-04-01T12:17:50.911Z,39.00
2019-04-01T12:22:52.274Z,38.80
2019-04-01T12:27:53.655Z,38.20
2019-04-01T12:32:55.107Z,38.80
2019-04-01T12:37:56.581Z,39.00
2019-04-01T12:42:57.919Z,39.30
2019-04-01T12:47:59.315Z,38.30
2019-04-01T12:53:00.775Z,38.20
2019-04-01T12:58:02.115Z,38.20
2019-04-01T13:03:03.512Z,38.80
2019-04-01T13:08:04.847Z,38.50
2019-04-01T13:13:06.204Z,39.00
2019-04-01T13:18:07.607Z,39.00
2019-04-01T13:23:09.214Z,38.80
2019-04-01T13:28:10.594Z,39.10
2019-04-01T13:33:11.983Z,39.00
2019-04-01T13:38:15.078Z,39.00
2019-04-01T13:43:17.014Z,39.60
2019-04-01T13:48:18.776Z,38.80
2019-04-01T13:53:20.947Z,39.10
2019-04-01T13:58:22.378Z,39.10
2019-04-01T14:03:23.817Z,39.40
2019-04-01T14:08:25.158Z,39.00
2019-04-01T14:13:26.496Z,39.40
2019-04-01T14:18:27.847Z,39.50
2019-04-01T14:23:29.172Z,39.20
2019-04-01T14:28:30.515Z,39.30
2019-04-01T14:33:32.722Z,39.80
2019-04-01T14:38:34.231Z,39.30
2019-04-01T14:43:35.586Z,39.50
2019-04-01T14:48:36.935Z,39.70
2019-04-01T14:53:38.261Z,39.70
2019-04-01T14:58:39.603Z,39.80
2019-04-01T15:03:40.951Z,39.80
2019-04-01T15:08:43.288Z,40.10
2019-04-01T15:13:44.614Z,40.00
2019-04-01T15:18:45.987Z,40.00
2019-04-01T15:23:47.318Z,40.10
2019-04-01T15:28:48.654Z,40.20
2019-04-01T15:33:50.272Z,40.10
2019-04-01T15:38:52.104Z,40.10
2019-04-01T15:43:53.423Z,40.30
2019-04-01T15:48:54.880Z,40.20
2019-04-01T15:53:56.319Z,40.00
2019-04-01T15:58:57.672Z,39.90
2019-04-01T16:03:59.059Z,40.10
2019-04-01T16:09:00.460Z,40.10
2019-04-01T16:14:02.006Z,39.70
2019-04-01T16:19:03.472Z,39.80
2019-04-01T16:24:04.946Z,39.70
2019-04-01T16:29:06.289Z,39.90
2019-04-01T16:34:07.612Z,40.00
2019-04-01T16:39:09.177Z,40.00
2019-04-01T16:44:10.625Z,40.10
2019-04-01T16:49:12.041Z,40.20
2019-04-01T16:54:13.524Z,40.20
2019-04-01T16:59:14.862Z,40.10
2019-04-01T17:04:17.236Z,40.30
2019-04-01T17:09:18.924Z,40.20
2019-04-01T17:14:20.211Z,40.40
2019-04-01T17:19:21.567Z,40.50
2019-04-01T17:24:22.884Z,40.80
2019-04-01T17:29:25.846Z,41.20
2019-04-01T17:34:27.486Z,40.60
2019-04-01T17:39:28.855Z,40.90
2019-04-01T17:44:30.495Z,40.50
2019-04-01T17:49:31.866Z,40.70
2019-04-01T17:54:33.175Z,40.70
2019-04-01T17:59:34.669Z,40.60
2019-04-01T18:04:36.096Z,39.10
2019-04-01T18:09:37.463Z,37.50
2019-04-01T18:14:38.957Z,38.20
2019-04-01T18:19:40.388Z,38.50
2019-04-01T18:24:41.712Z,38.80
2019-04-01T18:29:43.063Z,39.00
2019-04-01T18:34:44.489Z,38.90
2019-04-01T18:39:48.408Z,37.20
2019-04-01T18:44:49.096Z,37.40
2019-04-01T18:49:50.547Z,37.60
2019-04-01T18:54:51.901Z,37.70
2019-04-01T18:59:53.231Z,37.80
2019-04-01T19:04:54.610Z,38.90
2019-04-01T19:10:05.976Z,38.60
2019-04-01T19:15:02.402Z,39.10
2019-04-01T19:20:05.976Z,39.60
2019-04-01T19:25:07.843Z,39.40
2019-04-01T19:30:10.587Z,39.80
2019-04-01T19:35:12.838Z,39.80
2019-04-01T19:40:14.684Z,39.90
2019-04-01T19:45:16.203Z,39.80
2019-04-01T19:50:19.851Z,39.80
2019-04-01T19:55:21.223Z,40.00
2019-04-01T20:00:27.991Z,40.00
2019-04-01T20:05:26.013Z,40.10
2019-04-01T20:10:28.479Z,40.00
2019-04-01T20:15:30.179Z,40.10
2019-04-01T20:20:31.621Z,40.00
2019-04-01T20:25:32.954Z,40.40
2019-04-01T20:30:35.083Z,40.40
2019-04-01T20:35:36.948Z,40.40
2019-04-01T20:40:38.255Z,40.30
2019-04-01T20:45:39.597Z,40.40
2019-04-01T20:50:40.955Z,40.20
2019-04-01T20:55:47.980Z,40.40
2019-04-01T21:00:45.649Z,40.50
2019-04-01T21:05:47.015Z,40.20
2019-04-01T21:10:48.335Z,40.40
2019-04-01T21:15:49.683Z,40.40
2019-04-01T21:20:51.038Z,40.60
2019-04-01T21:25:52.358Z,40.60
2019-04-01T21:30:53.722Z,40.40
2019-04-01T21:35:55.044Z,40.50
2019-04-01T21:40:56.889Z,40.40
2019-04-01T21:45:58.294Z,40.60
2019-04-01T21:50:59.582Z,40.60
2019-04-01T21:56:00.896Z,40.50
2019-04-01T22:01:02.691Z,40.40
2019-04-01T22:06:04.109Z,40.40
2019-04-01T22:11:06.189Z,40.50
2019-04-01T22:16:07.439Z,40.40
2019-04-01T22:21:08.771Z,41.10
2019-04-01T22:26:10.079Z,40.60
2019-04-01T22:31:11.390Z,40.60
2019-04-01T22:36:12.681Z,40.50
2019-04-01T22:41:14.019Z,40.60
2019-04-01T22:46:15.327Z,40.50
2019-04-01T22:51:16.632Z,40.70
2019-04-01T22:56:17.951Z,40.60
2019-04-01T23:01:19.249Z,40.60
2019-04-01T23:06:20.563Z,40.70
2019-04-01T23:11:21.958Z,40.60
2019-04-01T23:16:23.268Z,40.80
2019-04-01T23:21:24.691Z,40.50
2019-04-01T23:26:26.284Z,40.70
2019-04-01T23:31:27.706Z,40.60
2019-04-01T23:36:29.006Z,40.80
2019-04-01T23:41:30.636Z,40.70
2019-04-01T23:46:32.053Z,40.70
2019-04-01T23:51:33.376Z,40.80
2019-04-01T23:56:34.722Z,40.80
